createdAt,value
2017-02-21T00:00:54.033Z,10.68
2017-02-21T00:01:54.049Z,10.7
2017-02-21T00:03:08.597Z,10.67
2017-02-21T00:03:54.105Z,10.7
2017-02-21T00:05:54.132Z,10.74
2017-02-21T00:06:54.539Z,10.64
2017-02-21T00:07:54.566Z,10.79
2017-02-21T00:08:54.589Z,10.74
2017-02-21T00:09:54.615Z,10.71
2017-02-21T00:11:09.149Z,10.74
2017-02-21T00:11:54.664Z,10.7
2017-02-21T00:12:54.665Z,10.68
2017-02-21T00:13:54.694Z,10.7
2017-02-21T00:14:54.705Z,10.71
2017-02-21T00:15:54.741Z,10.64
2017-02-21T00:16:54.748Z,10.7
2017-02-21T00:17:54.775Z,10.61
2017-02-21T00:18:54.903Z,10.68
2017-02-21T00:19:54.910Z,10.56
2017-02-21T00:20:54.829Z,10.61
2017-02-21T00:21:54.872Z,10.53
2017-02-21T00:22:54.874Z,10.6
2017-02-21T00:24:09.428Z,10.61
2017-02-21T00:24:54.914Z,10.55
2017-02-21T00:25:54.937Z,10.52
2017-02-21T00:26:54.956Z,10.56
2017-02-21T00:27:54.976Z,10.52
2017-02-21T00:28:55.006Z,10.52
2017-02-21T00:29:55.022Z,10.56
2017-02-21T00:30:55.039Z,10.66
2017-02-21T00:31:55.068Z,10.61
2017-02-21T00:32:55.080Z,10.52
2017-02-21T00:33:55.098Z,10.55
2017-02-21T00:35:55.151Z,10.61
2017-02-21T00:36:55.173Z,10.61
2017-02-21T00:37:55.195Z,10.51
2017-02-21T00:39:55.226Z,10.45
2017-02-21T00:40:55.261Z,10.47
2017-02-21T00:41:55.265Z,10.59
2017-02-21T00:43:09.815Z,10.51
2017-02-21T00:43:55.307Z,10.56
2017-02-21T00:44:55.343Z,10.56
2017-02-21T00:45:55.355Z,10.59
2017-02-21T00:46:55.393Z,10.59
2017-02-21T00:48:09.919Z,10.55
2017-02-21T00:48:55.429Z,10.59
2017-02-21T00:49:55.068Z,10.53
2017-02-21T00:50:55.074Z,10.56
2017-02-21T00:51:55.480Z,10.6
2017-02-21T00:52:55.108Z,10.6
2017-02-21T00:53:55.533Z,10.47
2017-02-21T00:55:10.075Z,10.64
2017-02-21T00:55:55.579Z,10.63
2017-02-21T00:57:10.113Z,10.52
2017-02-21T00:57:55.600Z,10.56
2017-02-21T00:59:55.254Z,10.66
2017-02-21T01:00:55.662Z,10.64
2017-02-21T01:01:55.681Z,10.56
2017-02-21T01:02:55.317Z,10.51
2017-02-21T01:03:55.336Z,10.51
2017-02-21T01:04:55.743Z,10.48
2017-02-21T01:05:55.804Z,10.52
2017-02-21T01:06:55.785Z,10.52
2017-02-21T01:07:55.807Z,10.48
2017-02-21T01:08:55.830Z,10.45
2017-02-21T01:09:55.854Z,10.48
2017-02-21T01:10:55.874Z,10.53
2017-02-21T01:11:55.895Z,10.4
2017-02-21T01:12:55.917Z,10.48
2017-02-21T01:13:55.950Z,10.29
2017-02-21T01:15:10.482Z,10.3
2017-02-21T01:15:56.003Z,10.22
2017-02-21T01:16:56.006Z,10.25
2017-02-21T01:17:56.031Z,10.33
2017-02-21T01:18:56.040Z,10.32
2017-02-21T01:19:56.075Z,10.32
2017-02-21T01:20:56.079Z,10.3
2017-02-21T01:21:55.729Z,10.23
2017-02-21T01:22:56.132Z,10.25
2017-02-21T01:23:56.168Z,10.27
2017-02-21T01:24:56.162Z,10.29
2017-02-21T01:25:56.183Z,10.2
2017-02-21T01:26:56.226Z,10.33
2017-02-21T01:27:56.221Z,10.18
2017-02-21T01:28:56.247Z,10.15
2017-02-21T01:29:56.269Z,10.04
2017-02-21T01:31:10.817Z,10.01
2017-02-21T01:31:56.309Z,10.01
2017-02-21T01:32:56.327Z,9.99
2017-02-21T01:33:56.359Z,10.08
2017-02-21T01:34:56.369Z,10.17
2017-02-21T01:35:56.396Z,10.17
2017-02-21T01:37:10.937Z,10.15
2017-02-21T01:38:10.972Z,10.25
2017-02-21T01:38:56.451Z,10.25
2017-02-21T01:39:56.506Z,10.23
2017-02-21T01:41:56.514Z,10.26
2017-02-21T01:42:56.533Z,10.29
2017-02-21T01:43:56.557Z,10.29
2017-02-21T01:44:56.591Z,10.27
2017-02-21T01:46:11.127Z,10.25
2017-02-21T01:46:56.628Z,10.36
2017-02-21T01:47:56.640Z,10.25
2017-02-21T01:48:56.666Z,10.25
2017-02-21T01:49:56.689Z,10.33
2017-02-21T01:50:56.711Z,10.25
2017-02-21T01:51:56.731Z,10.25
2017-02-21T01:52:56.741Z,10.25
2017-02-21T01:53:56.796Z,10.27
2017-02-21T01:54:56.783Z,10.17
2017-02-21T01:55:56.804Z,10.2
2017-02-21T01:56:56.823Z,10.14
2017-02-21T01:57:56.853Z,10.15
2017-02-21T01:58:56.873Z,10.17
2017-02-21T01:59:56.899Z,10.12
2017-02-21T02:00:56.925Z,10.18
2017-02-21T02:01:56.961Z,10.25
2017-02-21T02:02:56.954Z,10.12
2017-02-21T02:03:56.972Z,10.11
2017-02-21T02:04:56.996Z,9.97
2017-02-21T02:06:11.541Z,10.04
2017-02-21T02:06:57.031Z,9.97
2017-02-21T02:07:57.063Z,9.96
2017-02-21T02:08:57.095Z,9.97
2017-02-21T02:09:57.133Z,9.94
2017-02-21T02:10:57.363Z,9.97
2017-02-21T02:12:57.163Z,10.05
2017-02-21T02:13:57.173Z,10.14
2017-02-21T02:14:57.201Z,10.17
2017-02-21T02:15:57.223Z,10.12
2017-02-21T02:16:57.238Z,10.12
2017-02-21T02:18:11.786Z,10.18
2017-02-21T02:18:57.279Z,10.14
2017-02-21T02:19:57.300Z,10.07
2017-02-21T02:20:57.321Z,10.07
2017-02-21T02:21:57.346Z,10.04
2017-02-21T02:22:57.383Z,9.96
2017-02-21T02:23:57.418Z,9.96
2017-02-21T02:24:57.414Z,9.86
2017-02-21T02:25:57.420Z,9.75
2017-02-21T02:26:57.452Z,9.74
2017-02-21T02:27:57.481Z,9.79
2017-02-21T02:28:57.489Z,9.78
2017-02-21T02:29:57.507Z,9.78
2017-02-21T02:30:57.531Z,9.72
2017-02-21T02:31:57.552Z,9.81
2017-02-21T02:32:57.573Z,9.84
2017-02-21T02:34:12.117Z,9.89
2017-02-21T02:34:57.609Z,9.83
2017-02-21T02:35:57.628Z,9.84
2017-02-21T02:36:57.648Z,9.86
2017-02-21T02:38:12.197Z,9.93
2017-02-21T02:38:57.688Z,9.96
2017-02-21T02:39:57.734Z,9.93
2017-02-21T02:40:57.738Z,10.01
2017-02-21T02:41:57.764Z,9.96
2017-02-21T02:43:57.791Z,9.91
2017-02-21T02:44:57.812Z,9.86
2017-02-21T02:45:57.456Z,9.78
2017-02-21T02:46:57.476Z,9.86
2017-02-21T02:47:57.900Z,9.68
2017-02-21T02:48:57.511Z,9.84
2017-02-21T02:50:12.442Z,9.68
2017-02-21T02:50:57.945Z,9.66
2017-02-21T02:51:57.570Z,9.74
2017-02-21T02:52:57.983Z,9.68
2017-02-21T02:53:57.994Z,9.71
2017-02-21T02:54:57.642Z,9.72
2017-02-21T02:56:58.071Z,9.66
2017-02-21T02:57:58.091Z,9.75
2017-02-21T02:58:58.127Z,9.71
2017-02-21T02:59:58.130Z,9.72
2017-02-21T03:00:58.142Z,9.74
2017-02-21T03:01:58.159Z,9.72
2017-02-21T03:02:58.194Z,9.69
2017-02-21T03:03:58.264Z,9.74
2017-02-21T03:04:58.223Z,9.65
2017-02-21T03:06:12.769Z,9.81
2017-02-21T03:06:58.261Z,9.72
2017-02-21T03:07:58.284Z,9.76
2017-02-21T03:08:58.305Z,9.75
2017-02-21T03:09:58.327Z,9.74
2017-02-21T03:10:58.357Z,9.87
2017-02-21T03:11:58.373Z,9.78
2017-02-21T03:12:58.384Z,9.89
2017-02-21T03:13:58.404Z,9.94
2017-02-21T03:14:58.439Z,9.97
2017-02-21T03:15:58.447Z,9.99
2017-02-21T03:17:58.493Z,9.79
2017-02-21T03:18:58.515Z,9.79
2017-02-21T03:19:58.539Z,9.79
2017-02-21T03:21:13.077Z,9.79
2017-02-21T03:21:58.587Z,9.76
2017-02-21T03:22:58.589Z,9.76
2017-02-21T03:23:58.609Z,9.72
2017-02-21T03:24:58.632Z,9.72
2017-02-21T03:25:58.651Z,9.72
2017-02-21T03:26:58.671Z,9.83
2017-02-21T03:27:58.701Z,9.83
2017-02-21T03:28:58.711Z,9.76
2017-02-21T03:30:58.758Z,9.89
2017-02-21T03:31:58.775Z,9.76
2017-02-21T03:32:58.793Z,9.84
2017-02-21T03:33:58.822Z,9.84
2017-02-21T03:34:58.835Z,9.81
2017-02-21T03:35:58.854Z,9.83
2017-02-21T03:36:58.874Z,9.9
2017-02-21T03:37:58.895Z,9.99
2017-02-21T03:38:58.935Z,10.02
2017-02-21T03:39:58.940Z,9.93
2017-02-21T03:40:58.971Z,9.99
2017-02-21T03:42:59.014Z,9.94
2017-02-21T03:44:13.545Z,9.96
2017-02-21T03:45:58.685Z,9.9
2017-02-21T03:47:59.099Z,9.93
2017-02-21T03:48:59.138Z,9.9
2017-02-21T03:49:59.144Z,10.05
2017-02-21T03:51:59.182Z,9.97
2017-02-21T03:53:59.221Z,9.93
2017-02-21T03:54:59.263Z,9.96
2017-02-21T03:55:59.278Z,9.94
2017-02-21T03:56:59.297Z,9.99
2017-02-21T03:57:59.323Z,9.93
2017-02-21T03:58:59.333Z,9.97
2017-02-21T03:59:59.348Z,9.89
2017-02-21T04:00:59.370Z,9.87
2017-02-21T04:01:59.386Z,9.91
2017-02-21T04:02:59.407Z,9.91
2017-02-21T04:03:59.425Z,9.81
2017-02-21T04:04:59.453Z,9.84
2017-02-21T04:05:59.484Z,9.84
2017-02-21T04:07:14.029Z,9.87
2017-02-21T04:08:14.044Z,9.78
2017-02-21T04:09:14.061Z,9.83
2017-02-21T04:09:59.550Z,9.87
2017-02-21T04:10:59.577Z,9.74
2017-02-21T04:11:59.597Z,9.76
2017-02-21T04:12:59.616Z,9.75
2017-02-21T04:13:59.642Z,9.78
2017-02-21T04:14:59.666Z,9.69
2017-02-21T04:15:59.675Z,9.69
2017-02-21T04:16:59.692Z,9.69
2017-02-21T04:17:59.715Z,9.74
2017-02-21T04:19:59.765Z,9.69
2017-02-21T04:20:59.793Z,9.68
2017-02-21T04:21:59.797Z,9.72
2017-02-21T04:22:59.826Z,9.68
2017-02-21T04:23:59.858Z,9.66
2017-02-21T04:25:13.998Z,9.65
2017-02-21T04:25:59.890Z,9.64
2017-02-21T04:26:59.898Z,9.74
2017-02-21T04:27:59.925Z,9.68
2017-02-21T04:28:59.951Z,9.72
2017-02-21T04:29:59.971Z,9.68
2017-02-21T04:30:59.982Z,9.69
2017-02-21T04:33:00.033Z,9.69
2017-02-21T04:34:00.063Z,9.69
2017-02-21T04:35:00.062Z,9.71
2017-02-21T04:36:00.095Z,9.71
2017-02-21T04:37:00.101Z,9.64
2017-02-21T04:38:00.148Z,9.65
2017-02-21T04:39:00.143Z,9.66
2017-02-21T04:40:00.167Z,9.66
2017-02-21T04:41:14.712Z,9.65
2017-02-21T04:42:00.207Z,9.68
2017-02-21T04:42:59.844Z,9.68
2017-02-21T04:43:59.856Z,9.68
2017-02-21T04:45:14.795Z,9.66
2017-02-21T04:46:00.294Z,9.66
2017-02-21T04:46:59.928Z,9.72
2017-02-21T04:47:59.964Z,9.65
2017-02-21T04:48:59.960Z,9.72
2017-02-21T04:50:00.377Z,9.71
2017-02-21T04:51:00.001Z,9.69
2017-02-21T04:52:00.406Z,9.66
2017-02-21T04:53:00.058Z,9.58
2017-02-21T04:54:00.451Z,9.69
2017-02-21T04:55:00.087Z,9.54
2017-02-21T04:56:14.654Z,9.61
2017-02-21T04:57:00.528Z,9.58
2017-02-21T04:58:00.529Z,9.72
2017-02-21T04:59:00.610Z,9.71
2017-02-21T05:00:00.575Z,9.71
2017-02-21T05:01:15.120Z,9.58
2017-02-21T05:02:00.646Z,9.68
2017-02-21T05:03:00.643Z,9.61
2017-02-21T05:04:00.269Z,9.66
2017-02-21T05:05:00.707Z,9.6
2017-02-21T05:06:00.705Z,9.65
2017-02-21T05:07:00.730Z,9.65
2017-02-21T05:08:00.748Z,9.66
2017-02-21T05:09:00.780Z,9.71
2017-02-21T05:10:00.388Z,9.75
2017-02-21T05:11:00.808Z,9.6
2017-02-21T05:12:00.818Z,9.57
2017-02-21T05:13:00.857Z,9.66
2017-02-21T05:14:00.873Z,9.71
2017-02-21T05:15:00.875Z,9.68
2017-02-21T05:16:00.895Z,9.65
2017-02-21T05:17:00.941Z,9.64
2017-02-21T05:19:00.978Z,9.65
2017-02-21T05:20:00.981Z,9.71
2017-02-21T05:22:01.046Z,9.69
2017-02-21T05:23:01.055Z,9.69
2017-02-21T05:24:01.062Z,9.66
2017-02-21T05:25:01.107Z,9.66
2017-02-21T05:26:01.125Z,9.71
2017-02-21T05:27:01.133Z,9.71
2017-02-21T05:28:15.669Z,9.71
2017-02-21T05:29:01.179Z,9.69
2017-02-21T05:30:01.187Z,9.66
2017-02-21T05:31:01.230Z,9.68
2017-02-21T05:32:01.226Z,9.65
2017-02-21T05:33:01.265Z,9.72
2017-02-21T05:34:01.264Z,9.71
2017-02-21T05:35:01.307Z,9.74
2017-02-21T05:36:01.306Z,9.68
2017-02-21T05:37:01.356Z,9.74
2017-02-21T05:38:01.358Z,9.66
2017-02-21T05:39:01.397Z,9.75
2017-02-21T05:40:01.422Z,9.65
2017-02-21T05:41:01.447Z,9.68
2017-02-21T05:42:01.441Z,9.61
2017-02-21T05:43:01.466Z,9.65
2017-02-21T05:45:01.514Z,9.68
2017-02-21T05:46:01.516Z,9.61
2017-02-21T05:47:01.528Z,9.6
2017-02-21T05:48:01.546Z,9.58
2017-02-21T05:49:01.584Z,9.61
2017-02-21T05:50:01.610Z,9.65
2017-02-21T05:51:01.607Z,9.72
2017-02-21T05:53:01.662Z,9.61
2017-02-21T05:54:01.670Z,9.64
2017-02-21T05:55:01.730Z,9.65
2017-02-21T05:56:01.709Z,9.69
2017-02-21T05:57:01.750Z,9.75
2017-02-21T05:58:01.750Z,9.65
2017-02-21T05:59:01.793Z,9.74
2017-02-21T06:00:16.318Z,9.58
2017-02-21T06:01:01.838Z,9.64
2017-02-21T06:02:01.833Z,9.56
2017-02-21T06:03:01.501Z,9.54
2017-02-21T06:04:01.883Z,9.56
2017-02-21T06:05:01.909Z,9.58
2017-02-21T06:07:01.981Z,9.65
2017-02-21T06:09:01.972Z,9.6
2017-02-21T06:10:01.992Z,9.61
2017-02-21T06:11:02.054Z,9.61
2017-02-21T06:12:02.038Z,9.64
2017-02-21T06:13:02.073Z,9.66
2017-02-21T06:14:02.075Z,9.72
2017-02-21T06:15:02.112Z,9.64
2017-02-21T06:16:16.643Z,9.71
2017-02-21T06:17:02.153Z,9.68
2017-02-21T06:18:02.157Z,9.65
2017-02-21T06:19:02.179Z,9.61
2017-02-21T06:20:02.195Z,9.64
2017-02-21T06:21:02.246Z,9.65
2017-02-21T06:22:16.766Z,9.61
2017-02-21T06:23:02.274Z,9.57
2017-02-21T06:24:02.273Z,9.6
2017-02-21T06:27:02.357Z,9.6
2017-02-21T06:28:16.895Z,9.6
2017-02-21T06:29:02.396Z,9.58
2017-02-21T06:30:02.399Z,9.65
2017-02-21T06:31:16.947Z,9.56
2017-02-21T06:32:02.442Z,9.56
2017-02-21T06:33:02.466Z,9.5
2017-02-21T06:34:02.490Z,9.47
2017-02-21T06:35:02.525Z,9.54
2017-02-21T06:36:02.531Z,9.61
2017-02-21T06:37:02.544Z,9.5
2017-02-21T06:38:02.562Z,9.58
2017-02-21T06:39:02.602Z,9.53
2017-02-21T06:41:02.628Z,9.56
2017-02-21T06:42:02.652Z,9.56
2017-02-21T06:43:02.277Z,9.53
2017-02-21T06:44:02.699Z,9.51
2017-02-21T06:45:02.711Z,9.48
2017-02-21T06:46:02.723Z,9.6
2017-02-21T06:47:02.745Z,9.58
2017-02-21T06:49:02.401Z,9.65
2017-02-21T06:50:17.334Z,9.64
2017-02-21T06:51:02.441Z,9.6
2017-02-21T06:52:02.858Z,9.64
2017-02-21T06:53:02.888Z,9.57
2017-02-21T06:54:02.887Z,9.58
2017-02-21T06:55:03.109Z,9.61
2017-02-21T06:56:02.925Z,9.54
2017-02-21T06:57:17.486Z,9.6
2017-02-21T06:58:02.979Z,9.6
2017-02-21T07:00:17.575Z,9.65
2017-02-21T07:01:03.046Z,9.54
2017-02-21T07:02:03.049Z,9.61
2017-02-21T07:03:17.599Z,9.58
2017-02-21T07:04:03.089Z,9.57
2017-02-21T07:05:03.126Z,9.64
2017-02-21T07:06:03.144Z,9.57
2017-02-21T07:07:17.679Z,9.71
2017-02-21T07:08:03.205Z,9.66
2017-02-21T07:10:03.213Z,9.71
2017-02-21T07:11:17.772Z,9.65
2017-02-21T07:12:03.251Z,9.65
2017-02-21T07:13:03.273Z,9.58
2017-02-21T07:14:03.286Z,9.64
2017-02-21T07:15:03.314Z,9.74
2017-02-21T07:16:17.868Z,9.61
2017-02-21T07:17:03.353Z,9.64
2017-02-21T07:18:03.414Z,9.68
2017-02-21T07:19:17.924Z,9.66
2017-02-21T07:20:03.035Z,9.65
2017-02-21T07:21:03.434Z,9.65
2017-02-21T07:23:03.474Z,9.56
2017-02-21T07:24:03.507Z,9.57
2017-02-21T07:26:03.542Z,9.57
2017-02-21T07:27:03.203Z,9.6
2017-02-21T07:28:03.577Z,9.6
2017-02-21T07:29:03.637Z,9.65
2017-02-21T07:30:03.640Z,9.69
2017-02-21T07:31:03.640Z,9.65
2017-02-21T07:32:03.663Z,9.68
2017-02-21T07:33:03.675Z,9.61
2017-02-21T07:34:03.716Z,9.75
2017-02-21T07:35:18.245Z,9.64
2017-02-21T07:36:03.742Z,9.64
2017-02-21T07:37:03.763Z,9.65
2017-02-21T07:38:03.780Z,9.71
2017-02-21T07:39:18.329Z,9.69
2017-02-21T07:40:03.822Z,9.71
2017-02-21T07:41:03.860Z,9.69
2017-02-21T07:42:03.863Z,9.65
2017-02-21T07:43:03.892Z,9.6
2017-02-21T07:45:03.942Z,9.65
2017-02-21T07:46:03.946Z,9.81
2017-02-21T07:48:03.986Z,9.75
2017-02-21T07:49:04.033Z,9.79
2017-02-21T07:50:04.030Z,9.86
2017-02-21T07:51:18.578Z,9.86
2017-02-21T07:52:04.073Z,9.76
2017-02-21T07:53:04.100Z,9.84
2017-02-21T07:55:03.740Z,9.94
2017-02-21T07:56:04.180Z,9.94
2017-02-21T07:57:04.169Z,9.87
2017-02-21T07:58:18.765Z,9.86
2017-02-21T07:59:04.209Z,9.83
2017-02-21T08:00:04.245Z,9.86
2017-02-21T08:01:04.257Z,9.84
2017-02-21T08:02:04.271Z,9.78
2017-02-21T08:03:04.291Z,9.94
2017-02-21T08:04:04.325Z,9.87
2017-02-21T08:05:04.341Z,9.96
2017-02-21T08:06:18.883Z,9.97
2017-02-21T08:07:04.374Z,9.97
2017-02-21T08:08:04.407Z,9.93
2017-02-21T08:09:04.415Z,9.96
2017-02-21T08:10:04.437Z,9.87
2017-02-21T08:11:04.473Z,9.91
2017-02-21T08:12:04.477Z,9.94
2017-02-21T08:13:04.498Z,9.93
2017-02-21T08:14:04.535Z,9.84
2017-02-21T08:15:04.568Z,9.86
2017-02-21T08:16:04.184Z,9.76
2017-02-21T08:17:04.594Z,9.64
2017-02-21T08:18:04.602Z,9.57
2017-02-21T08:19:04.644Z,9.69
2017-02-21T08:20:04.644Z,9.66
2017-02-21T08:21:04.667Z,9.57
2017-02-21T08:22:04.688Z,9.61
2017-02-21T08:23:04.701Z,9.65
2017-02-21T08:24:04.724Z,9.54
2017-02-21T08:25:04.744Z,9.57
2017-02-21T08:26:04.769Z,9.6
2017-02-21T08:27:04.797Z,9.5
2017-02-21T08:28:04.429Z,9.6
2017-02-21T08:30:04.853Z,9.57
2017-02-21T08:31:04.867Z,9.38
2017-02-21T08:32:04.884Z,9.42
2017-02-21T08:33:04.918Z,9.4
2017-02-21T08:34:04.553Z,9.43
2017-02-21T08:35:04.966Z,9.43
2017-02-21T08:36:04.979Z,9.47
2017-02-21T08:37:04.985Z,9.5
2017-02-21T08:38:19.532Z,9.47
2017-02-21T08:39:05.040Z,9.35
2017-02-21T08:40:05.056Z,9.39
2017-02-21T08:41:05.083Z,9.38
2017-02-21T08:42:05.089Z,9.39
2017-02-21T08:43:05.120Z,9.33
2017-02-21T08:44:05.147Z,9.4
2017-02-21T08:46:05.172Z,9.35
2017-02-21T08:49:05.228Z,9.42
2017-02-21T08:50:05.250Z,9.39
2017-02-21T08:51:05.267Z,9.39
2017-02-21T08:52:05.341Z,9.32
2017-02-21T08:53:05.316Z,9.33
2017-02-21T08:54:19.856Z,9.39
2017-02-21T08:55:05.349Z,9.4
2017-02-21T08:56:05.370Z,9.31
2017-02-21T08:57:05.390Z,9.39
2017-02-21T08:58:19.937Z,9.35
2017-02-21T08:59:05.482Z,9.35
2017-02-21T09:00:05.448Z,9.42
2017-02-21T09:01:05.472Z,9.29
2017-02-21T09:02:05.488Z,9.31
2017-02-21T09:03:05.509Z,9.31
2017-02-21T09:04:05.538Z,9.32
2017-02-21T09:05:05.556Z,9.29
2017-02-21T09:06:05.578Z,9.24
2017-02-21T09:07:05.591Z,9.15
2017-02-21T09:08:05.611Z,9.14
2017-02-21T09:09:05.645Z,9.08
2017-02-21T09:10:20.177Z,9.18
2017-02-21T09:11:05.672Z,9.08
2017-02-21T09:12:05.310Z,9.05
2017-02-21T09:13:20.240Z,9.08
2017-02-21T09:14:05.731Z,9.08
2017-02-21T09:15:05.380Z,9.01
2017-02-21T09:16:05.779Z,8.96
2017-02-21T09:17:05.801Z,9.01
2017-02-21T09:18:05.820Z,8.87
2017-02-21T09:19:05.880Z,8.87
2017-02-21T09:20:05.868Z,8.81
2017-02-21T09:21:05.869Z,8.79
2017-02-21T09:22:05.903Z,8.68
2017-02-21T09:24:05.933Z,8.74
2017-02-21T09:26:20.499Z,8.77
2017-02-21T09:27:05.992Z,8.8
2017-02-21T09:28:06.032Z,8.84
2017-02-21T09:29:06.047Z,8.81
2017-02-21T09:30:06.058Z,8.66
2017-02-21T09:31:06.072Z,8.68
2017-02-21T09:32:20.620Z,8.68
2017-02-21T09:33:06.118Z,8.63
2017-02-21T09:34:06.144Z,8.66
2017-02-21T09:35:06.156Z,8.79
2017-02-21T09:36:06.182Z,8.7
2017-02-21T09:37:06.193Z,8.91
2017-02-21T09:38:06.215Z,8.87
2017-02-21T09:39:05.849Z,8.96
2017-02-21T09:40:06.255Z,8.91
2017-02-21T09:41:20.800Z,8.95
2017-02-21T09:42:06.291Z,8.94
2017-02-21T09:43:06.328Z,8.95
2017-02-21T09:44:20.861Z,9.08
2017-02-21T09:45:20.881Z,9.02
2017-02-21T09:46:06.389Z,8.98
2017-02-21T09:47:06.404Z,8.91
2017-02-21T09:48:06.415Z,9.04
2017-02-21T09:49:06.466Z,9.04
2017-02-21T09:50:06.455Z,9.14
2017-02-21T09:51:06.492Z,9.23
2017-02-21T09:52:06.493Z,9.18
2017-02-21T09:53:06.514Z,9.21
2017-02-21T09:54:06.538Z,9.35
2017-02-21T09:55:21.108Z,9.23
2017-02-21T09:56:06.584Z,9.35
2017-02-21T09:59:06.637Z,9.26
2017-02-21T10:00:21.185Z,9.38
2017-02-21T10:01:06.691Z,9.28
2017-02-21T10:02:06.709Z,9.31
2017-02-21T10:03:06.718Z,9.23
2017-02-21T10:04:06.747Z,9.15
2017-02-21T10:05:06.760Z,9.05
2017-02-21T10:07:06.803Z,8.74
2017-02-21T10:08:06.825Z,8.56
2017-02-21T10:09:06.852Z,8.44
2017-02-21T10:10:06.856Z,8.43
2017-02-21T10:11:06.882Z,8.34
2017-02-21T10:12:06.902Z,8.41
2017-02-21T10:13:21.448Z,8.22
2017-02-21T10:14:06.952Z,8.15
2017-02-21T10:15:21.489Z,8.12
2017-02-21T10:16:06.986Z,8.04
2017-02-21T10:17:07.003Z,8
2017-02-21T10:18:06.646Z,8.05
2017-02-21T10:19:06.655Z,7.98
2017-02-21T10:20:06.676Z,8.02
2017-02-21T10:21:07.111Z,8.07
2017-02-21T10:22:06.736Z,8.12
2017-02-21T10:23:07.124Z,8.33
2017-02-21T10:24:21.677Z,8.26
2017-02-21T10:25:07.164Z,8.23
2017-02-21T10:26:07.184Z,8.12
2017-02-21T10:27:07.201Z,8.01
2017-02-21T10:28:07.220Z,8.12
2017-02-21T10:29:21.774Z,8.1
2017-02-21T10:30:07.285Z,8.01
2017-02-21T10:31:07.279Z,8.08
2017-02-21T10:32:07.298Z,8.07
2017-02-21T10:33:07.320Z,8.16
2017-02-21T10:34:21.866Z,8.19
2017-02-21T10:35:07.358Z,8.25
2017-02-21T10:36:07.390Z,8.25
2017-02-21T10:37:07.398Z,8.26
2017-02-21T10:39:07.469Z,8.19
2017-02-21T10:40:07.460Z,8.23
2017-02-21T10:41:07.528Z,8.37
2017-02-21T10:42:07.501Z,8.43
2017-02-21T10:43:07.529Z,8.12
2017-02-21T10:44:07.165Z,8.15
2017-02-21T10:45:21.700Z,8.08
2017-02-21T10:46:07.582Z,8
2017-02-21T10:47:07.604Z,7.97
2017-02-21T10:48:07.619Z,8.08
2017-02-21T10:49:22.165Z,8.33
2017-02-21T10:50:07.661Z,8.37
2017-02-21T10:51:07.677Z,8.25
2017-02-21T10:52:07.701Z,8.23
2017-02-21T10:53:07.715Z,8.18
2017-02-21T10:54:07.743Z,8.23
2017-02-21T10:55:07.759Z,8.34
2017-02-21T10:56:07.779Z,8.4
2017-02-21T10:57:07.805Z,8.52
2017-02-21T10:58:07.829Z,8.47
2017-02-21T10:59:07.870Z,8.41
2017-02-21T11:00:07.486Z,8.43
2017-02-21T11:01:22.407Z,8.44
2017-02-21T11:02:07.905Z,8.47
2017-02-21T11:03:07.938Z,8.38
2017-02-21T11:04:07.558Z,8.38
2017-02-21T11:05:07.575Z,8.44
2017-02-21T11:06:07.986Z,8.55
2017-02-21T11:07:07.625Z,8.63
2017-02-21T11:08:08.035Z,8.59
2017-02-21T11:09:08.044Z,8.58
2017-02-21T11:10:07.290Z,8.65
2017-02-21T11:11:08.086Z,8.68
2017-02-21T11:12:07.718Z,8.55
2017-02-21T11:13:08.133Z,8.56
2017-02-21T11:14:08.143Z,8.56
2017-02-21T11:15:07.778Z,8.76
2017-02-21T11:16:22.713Z,8.83
2017-02-21T11:17:08.214Z,8.8
2017-02-21T11:18:08.238Z,8.92
2017-02-21T11:19:22.775Z,9.11
2017-02-21T11:20:07.890Z,9.18
2017-02-21T11:22:08.321Z,9.28
2017-02-21T11:24:08.361Z,9.38
2017-02-21T11:25:08.366Z,9.26
2017-02-21T11:26:08.690Z,9.17
2017-02-21T11:27:08.414Z,9.15
2017-02-21T11:28:08.433Z,9.13
2017-02-21T11:29:08.468Z,9.32
2017-02-21T11:30:08.470Z,9.31
2017-02-21T11:31:08.487Z,9.47
2017-02-21T11:32:08.543Z,9.36
2017-02-21T11:33:08.531Z,9.46
2017-02-21T11:34:08.553Z,9.58
2017-02-21T11:35:08.192Z,9.5
2017-02-21T11:36:08.620Z,9.65
2017-02-21T11:37:08.629Z,9.84
2017-02-21T11:38:08.258Z,9.9
2017-02-21T11:39:08.656Z,9.96
2017-02-21T11:40:23.218Z,9.91
2017-02-21T11:41:08.709Z,9.87
2017-02-21T11:42:08.337Z,10.01
2017-02-21T11:43:08.749Z,9.91
2017-02-21T11:44:08.759Z,10.01
2017-02-21T11:46:08.809Z,10.11
2017-02-21T11:47:08.830Z,10.23
2017-02-21T11:49:08.864Z,10.38
2017-02-21T11:50:08.501Z,10.44
2017-02-21T11:51:08.906Z,10.45
2017-02-21T11:52:08.931Z,10.3
2017-02-21T11:53:09.451Z,10.3
2017-02-21T11:54:08.970Z,10.26
2017-02-21T11:55:23.534Z,10.17
2017-02-21T11:56:08.643Z,10.3
2017-02-21T11:57:09.045Z,10.42
2017-02-21T11:58:09.076Z,10.45
2017-02-21T12:00:09.108Z,10.78
2017-02-21T12:01:09.121Z,10.84
2017-02-21T12:02:09.168Z,10.68
2017-02-21T12:03:08.775Z,10.55
2017-02-21T12:04:23.714Z,10.47
2017-02-21T12:05:23.738Z,10.55
2017-02-21T12:06:09.229Z,10.51
2017-02-21T12:07:23.780Z,10.63
2017-02-21T12:08:09.281Z,10.63
2017-02-21T12:09:09.293Z,10.66
2017-02-21T12:10:09.377Z,10.48
2017-02-21T12:11:09.345Z,10.3
2017-02-21T12:12:09.359Z,10.25
2017-02-21T12:13:09.407Z,10.25
2017-02-21T12:14:09.410Z,10.33
2017-02-21T12:15:09.428Z,10.38
2017-02-21T12:16:09.442Z,10.29
2017-02-21T12:17:09.469Z,10.32
2017-02-21T12:18:09.485Z,10.23
2017-02-21T12:19:09.506Z,10.12
2017-02-21T12:20:24.058Z,10.14
2017-02-21T12:21:09.564Z,10.11
2017-02-21T12:22:09.571Z,10.2
2017-02-21T12:23:09.595Z,10.08
2017-02-21T12:24:24.143Z,10.09
2017-02-21T12:25:09.649Z,10.2
2017-02-21T12:26:09.661Z,10.32
2017-02-21T12:27:09.708Z,10.36
2017-02-21T12:28:09.313Z,10.48
2017-02-21T12:29:09.352Z,10.22
2017-02-21T12:30:24.282Z,10.2
2017-02-21T12:31:09.765Z,10.18
2017-02-21T12:33:09.817Z,10.22
2017-02-21T12:34:09.826Z,10.15
2017-02-21T12:36:24.403Z,9.97
2017-02-21T12:37:09.917Z,10.04
2017-02-21T12:38:09.933Z,10.05
2017-02-21T12:39:09.944Z,10.05
2017-02-21T12:40:24.484Z,10.04
2017-02-21T12:41:09.995Z,10.07
2017-02-21T12:42:10.013Z,10.01
2017-02-21T12:43:10.026Z,10.01
2017-02-21T12:44:09.653Z,10.05
2017-02-21T12:45:10.083Z,10.18
2017-02-21T12:47:09.725Z,10.15
2017-02-21T12:48:10.129Z,10.08
2017-02-21T12:49:10.150Z,10.04
2017-02-21T12:50:10.180Z,9.91
2017-02-21T12:51:24.718Z,10.05
2017-02-21T12:52:10.215Z,10.04
2017-02-21T12:53:10.236Z,10.02
2017-02-21T12:54:10.256Z,10.11
2017-02-21T12:55:24.804Z,10.14
2017-02-21T12:56:10.311Z,10.14
2017-02-21T12:57:09.942Z,10.27
2017-02-21T12:58:10.338Z,10.26
2017-02-21T12:59:10.358Z,10.34
2017-02-21T13:01:10.400Z,10.42
2017-02-21T13:02:10.059Z,10.4
2017-02-21T13:03:10.442Z,10.26
2017-02-21T13:04:10.081Z,10.09
2017-02-21T13:05:10.103Z,10.12
2017-02-21T13:06:10.120Z,10.14
2017-02-21T13:07:10.161Z,10.15
2017-02-21T13:08:10.163Z,10.17
2017-02-21T13:09:10.198Z,10.22
2017-02-21T13:10:10.220Z,10.17
2017-02-21T13:11:10.227Z,10.15
2017-02-21T13:12:24.778Z,10.17
2017-02-21T13:13:09.888Z,10.05
2017-02-21T13:14:10.291Z,10.17
2017-02-21T13:16:10.336Z,10.22
2017-02-21T13:17:25.280Z,10.12
2017-02-21T13:18:10.424Z,10.14
2017-02-21T13:19:10.009Z,10.08
2017-02-21T13:20:10.428Z,9.97
2017-02-21T13:21:10.830Z,9.74
2017-02-21T13:22:10.851Z,9.72
2017-02-21T13:23:25.400Z,9.84
2017-02-21T13:24:10.536Z,9.79
2017-02-21T13:25:10.549Z,9.71
2017-02-21T13:26:10.160Z,9.83
2017-02-21T13:27:25.479Z,9.96
2017-02-21T13:28:10.977Z,9.99
2017-02-21T13:29:10.991Z,9.97
2017-02-21T13:30:10.250Z,10.04
2017-02-21T13:31:10.263Z,9.96
2017-02-21T13:32:10.302Z,9.97
2017-02-21T13:33:11.095Z,10.01
2017-02-21T13:34:10.324Z,10.14
2017-02-21T13:35:10.369Z,10.08
2017-02-21T13:36:11.139Z,10.08
2017-02-21T13:37:10.783Z,10.18
2017-02-21T13:38:10.804Z,10.22
2017-02-21T13:40:10.464Z,10.3
2017-02-21T13:41:11.243Z,10.32
2017-02-21T13:43:11.284Z,10.52
2017-02-21T13:44:11.304Z,10.68
2017-02-21T13:45:11.337Z,10.78
2017-02-21T13:46:11.352Z,10.59
2017-02-21T13:47:11.385Z,10.63
2017-02-21T13:48:11.011Z,10.61
2017-02-21T13:49:11.431Z,10.68
2017-02-21T13:50:11.631Z,10.68
2017-02-21T13:51:11.489Z,10.63
2017-02-21T13:52:11.475Z,10.68
2017-02-21T13:53:11.504Z,10.76
2017-02-21T13:54:11.131Z,10.68
2017-02-21T13:55:26.067Z,10.67
2017-02-21T13:56:11.557Z,10.73
2017-02-21T13:57:11.577Z,10.7
2017-02-21T13:58:11.611Z,10.61
2017-02-21T13:59:11.632Z,10.61
2017-02-21T14:00:11.643Z,10.73
2017-02-21T14:01:11.671Z,10.74
2017-02-21T14:02:11.726Z,10.76
2017-02-21T14:03:11.719Z,10.76
2017-02-21T14:04:10.962Z,10.61
2017-02-21T14:05:11.373Z,10.6
2017-02-21T14:06:11.771Z,10.42
2017-02-21T14:07:11.795Z,10.44
2017-02-21T14:08:11.425Z,10.38
2017-02-21T14:09:11.828Z,10.47